Terminal Aerodrome Forecast
Issued by NWS Austin/San Antonio, TX

Home | Current Version | Previous Version | Text Only | Print | Product List | Glossary On
Versions: 1 2 3 4 5 6 7 8 9 10 11 12
000
FTUS44 KEWX 261800 AAA
TAFSAT
TAF AMD
KSAT 261805Z 2618/2724 18009KT P6SM VCSH SCT010 BKN024 OVC030
     FM262000 17008KT P6SM BKN025
     FM270200 14005KT P6SM OVC015
     FM270700 14004KT 3SM BR OVC008
     FM270900 VRB03KT 1/2SM FG OVC005
     FM271500 01012KT P6SM OVC012=

USA.gov is the U.S. government's official web portal to all federal, state and local government web resources and services.